Архив погоды в Белом

Метеограмма Белый
Воскресенье, 20 Августа
Время местн. Темп Ветер Видим Явления Облачность нижн/средн/верх Атм. давл. Влжн Точка росы ВНГО R Сост. почвы Tg s
Напр Скр Прв ур.ст ур.м изм
15:00 +28.3° Ю 6 - 50 км - облачно с прояснениями 746 764 -0.5 38% +12.6° более 2.5 км - - - -
12:00 +25.7° Ю 4 - 50 км - облачно с прояснениями 746 765 +0.2 49% +14.2° - - - - -
09:00 +22.1° Ю,Ю-З 4 - 50 км - облачно с прояснениями 746 765 +0.5 52% +11.8° - 0 Влажная (без луж) - -
06:00 +19.8° Ю 4 - 20 км - облачно с прояснениями 745 765 -0.1 58% +11.2° - - - - -
03:00 +20.1° Ю 3 - 10 км - ясно 745 765 -0.2 64% +13.2° более 2.5 км - - - -
00:00 +19.2° Ю 2 - 10 км - ясно 745 765 +0.2 76% +14.9° более 2.5 км - - - -
Суббота, 19 Августа
Время местн. Темп Ветер Видим Явления Облачность нижн/средн/верх Атм. давл. Влжн Точка росы ВНГО R Сост. почвы Tg s
Напр Скр Прв ур.ст ур.м изм
21:00 +20.5° Ю 3 - 10 км - ясно 745 765 -0.2 72% +15.2° более 2.5 км 0 - - -
18:00 +26.2° Ю 3 - более 50 км - переменная облачность 745 764 -0.3 53% +15.8° более 2.5 км - - - -
15:00 +28.3° Ю,Ю-З 4 - 50 км - переменная облачность 746 765 -0.2 39% +13.2° более 2.5 км - - - -
12:00 +27.3° Ю,Ю-З 2 - 50 км - облачно с прояснениями 746 765 -0.1 49% +15.5° более 2.5 км - - - -
09:00 +21.7° Ю 2 - более 50 км - облачно с прояснениями 746 765 +0.4 68% +15.6° более 2.5 км 0 Влажная (без луж) +15° -
06:00 +14.7° Ю,Ю-В 2 - 20 км - переменная облачность 746 765 -0.2 92% +13.4° более 2.5 км - - - -
03:00 +16.7° Ю 2 - 10 км - ясно 746 766 -0.3 82% +13.7° более 2.5 км - - - -
00:00 +18° Ю 3 - 10 км - переменная облачность 746 766 -0.2 76% +13.7° более 2.5 км - - - -
Пятница, 18 Августа
Время местн. Темп Ветер Видим Явления Облачность нижн/средн/верх Атм. давл. Влжн Точка росы ВНГО R Сост. почвы Tg s
Напр Скр Прв ур.ст ур.м изм
21:00 +19.3° Ю 3 - 10 км - преимущественно облачно 746 766 -0.2 77% +15.1° более 2.5 км 0 - - -
18:00 +25.9° Ю 2 - 50 км - переменная облачность 747 766 -0.5 49% +14.4° более 2.5 км - - - -
15:00 +27° Ю 5 - 50 км - переменная облачность 747 766 -0.6 46% +14.3° 1.5 км - - - -
12:00 +26.2° Ю,Ю-З 4 - более 50 км - переменная облачность 748 767 0 52% +15.6° более 2.5 км - - - -
09:00 +21.8° Ю 3 - 20 км - ясно 748 767 +0.1 67% +15.3° более 2.5 км 0 Влажная (без луж) - -
06:00 +14.1° Ю-В 2 - 4 км дымка ясно 748 767 -0.3 94% +13.2° более 2.5 км - - - -
03:00 +15.1° Ю-В 1 - 10 км - ясно 748 768 -0.5 90% +13.4° более 2.5 км - - - -
00:00 +15.7° Ю-В 3 - 10 км - ясно 748 768 +0.1 90% +14° более 2.5 км - - - -
Четверг, 17 Августа
Время местн. Темп Ветер Видим Явления Облачность нижн/средн/верх Атм. давл. Влжн Точка росы ВНГО R Сост. почвы Tg s
Напр Скр Прв ур.ст ур.м изм
21:00 +18.2° Ю-В 2 - 10 км - переменная облачность 748 768 -0.1 81% +14.9° - 0 - - -
18:00 +23.3° Ю-В 3 - более 50 км - преимущественно облачно 748 768 -0.8 59% +14.8° более 2.5 км - - - -
15:00 +24.5° Ю 3 - 50 км - преимущественно облачно 749 768 -0.4 55% +15° 1.5 км - - - -
12:00 +23.2° Ю,Ю-В 3 - 50 км - облачно с прояснениями 749 769 -0.5 59% +14.7° более 2.5 км - - - -